sensor_id;sensor_type;location;lat;lon;timestamp;temperature;humidity
8487;DHT22;4280;50.534;8.708;2024-03-22T00:01:46;7.50;1.00
8487;DHT22;4280;50.534;8.708;2024-03-22T00:04:12;7.60;1.00
8487;DHT22;4280;50.534;8.708;2024-03-22T00:06:40;7.60;1.00
8487;DHT22;4280;50.534;8.708;2024-03-22T00:09:06;7.60;1.00
8487;DHT22;4280;50.534;8.708;2024-03-22T00:11:32;7.60;1.00
8487;DHT22;4280;50.534;8.708;2024-03-22T00:13:58;7.60;1.00
8487;DHT22;4280;50.534;8.708;2024-03-22T00:16:24;7.60;1.00
8487;DHT22;4280;50.534;8.708;2024-03-22T00:18:49;7.60;1.00
8487;DHT22;4280;50.534;8.708;2024-03-22T00:21:15;7.60;1.00
8487;DHT22;4280;50.534;8.708;2024-03-22T00:23:41;7.60;1.00
8487;DHT22;4280;50.534;8.708;2024-03-22T00:26:07;7.60;1.00
8487;DHT22;4280;50.534;8.708;2024-03-22T00:28:32;7.60;1.00
8487;DHT22;4280;50.534;8.708;2024-03-22T00:30:58;7.60;1.00
8487;DHT22;4280;50.534;8.708;2024-03-22T00:33:24;7.40;1.00
8487;DHT22;4280;50.534;8.708;2024-03-22T00:35:50;7.40;1.00
8487;DHT22;4280;50.534;8.708;2024-03-22T00:38:15;7.30;1.00
8487;DHT22;4280;50.534;8.708;2024-03-22T00:40:41;7.30;1.00
8487;DHT22;4280;50.534;8.708;2024-03-22T00:43:07;7.20;1.00
8487;DHT22;4280;50.534;8.708;2024-03-22T00:45:33;7.10;1.00
8487;DHT22;4280;50.534;8.708;2024-03-22T00:47:59;7.10;1.00
8487;DHT22;4280;50.534;8.708;2024-03-22T00:50:25;7.10;1.00
8487;DHT22;4280;50.534;8.708;2024-03-22T00:52:51;7.10;1.00
8487;DHT22;4280;50.534;8.708;2024-03-22T00:55:18;7.00;1.00
8487;DHT22;4280;50.534;8.708;2024-03-22T00:57:44;7.00;1.00
8487;DHT22;4280;50.534;8.708;2024-03-22T01:00:10;7.00;1.00
8487;DHT22;4280;50.534;8.708;2024-03-22T01:02:36;7.00;1.00
8487;DHT22;4280;50.534;8.708;2024-03-22T01:05:01;7.00;1.00
8487;DHT22;4280;50.534;8.708;2024-03-22T01:07:27;6.90;1.00
8487;DHT22;4280;50.534;8.708;2024-03-22T01:09:53;6.90;1.00
8487;DHT22;4280;50.534;8.708;2024-03-22T01:12:18;6.90;1.00
8487;DHT22;4280;50.534;8.708;2024-03-22T01:14:44;6.90;1.00
8487;DHT22;4280;50.534;8.708;2024-03-22T01:17:10;6.90;1.00
8487;DHT22;4280;50.534;8.708;2024-03-22T01:19:36;6.90;1.00
8487;DHT22;4280;50.534;8.708;2024-03-22T01:22:01;6.80;1.00
8487;DHT22;4280;50.534;8.708;2024-03-22T01:24:27;6.70;1.00
8487;DHT22;4280;50.534;8.708;2024-03-22T01:26:53;6.60;1.00
8487;DHT22;4280;50.534;8.708;2024-03-22T01:29:19;6.60;1.00
8487;DHT22;4280;50.534;8.708;2024-03-22T01:31:44;6.60;1.00
8487;DHT22;4280;50.534;8.708;2024-03-22T01:34:10;6.50;1.00
8487;DHT22;4280;50.534;8.708;2024-03-22T01:36:36;6.60;1.00
8487;DHT22;4280;50.534;8.708;2024-03-22T01:39:02;6.60;1.00
8487;DHT22;4280;50.534;8.708;2024-03-22T01:41:27;6.50;1.00
8487;DHT22;4280;50.534;8.708;2024-03-22T01:43:53;6.50;1.00
8487;DHT22;4280;50.534;8.708;2024-03-22T01:46:19;6.30;1.00
8487;DHT22;4280;50.534;8.708;2024-03-22T01:48:44;6.20;1.00
8487;DHT22;4280;50.534;8.708;2024-03-22T01:51:11;6.20;1.00
8487;DHT22;4280;50.534;8.708;2024-03-22T01:53:37;6.20;1.00
8487;DHT22;4280;50.534;8.708;2024-03-22T01:56:03;6.10;1.00
8487;DHT22;4280;50.534;8.708;2024-03-22T01:58:29;6.20;1.00
8487;DHT22;4280;50.534;8.708;2024-03-22T02:00:55;6.20;1.00
8487;DHT22;4280;50.534;8.708;2024-03-22T02:03:21;6.20;1.00
8487;DHT22;4280;50.534;8.708;2024-03-22T02:05:47;6.10;1.00
8487;DHT22;4280;50.534;8.708;2024-03-22T02:08:12;6.10;1.00
8487;DHT22;4280;50.534;8.708;2024-03-22T02:10:38;6.10;1.00
8487;DHT22;4280;50.534;8.708;2024-03-22T02:13:04;6.10;1.00
8487;DHT22;4280;50.534;8.708;2024-03-22T02:15:29;6.10;1.00
8487;DHT22;4280;50.534;8.708;2024-03-22T02:17:55;6.10;1.00
8487;DHT22;4280;50.534;8.708;2024-03-22T02:20:21;6.30;1.00
8487;DHT22;4280;50.534;8.708;2024-03-22T02:22:47;6.30;1.00
8487;DHT22;4280;50.534;8.708;2024-03-22T02:25:12;6.30;1.00
8487;DHT22;4280;50.534;8.708;2024-03-22T02:27:38;6.30;1.00
8487;DHT22;4280;50.534;8.708;2024-03-22T02:30:05;6.20;1.00
8487;DHT22;4280;50.534;8.708;2024-03-22T02:32:31;6.20;1.00
8487;DHT22;4280;50.534;8.708;2024-03-22T02:34:56;6.20;1.00
8487;DHT22;4280;50.534;8.708;2024-03-22T02:37:22;6.30;1.00
8487;DHT22;4280;50.534;8.708;2024-03-22T02:40:00;6.20;1.00
8487;DHT22;4280;50.534;8.708;2024-03-22T02:42:26;6.20;1.00
8487;DHT22;4280;50.534;8.708;2024-03-22T02:44:52;6.20;1.00
8487;DHT22;4280;50.534;8.708;2024-03-22T02:47:18;6.10;1.00
8487;DHT22;4280;50.534;8.708;2024-03-22T02:49:44;6.00;1.00
8487;DHT22;4280;50.534;8.708;2024-03-22T02:52:09;5.80;1.00
8487;DHT22;4280;50.534;8.708;2024-03-22T02:54:35;5.80;1.00
8487;DHT22;4280;50.534;8.708;2024-03-22T02:57:01;5.80;1.00
8487;DHT22;4280;50.534;8.708;2024-03-22T02:59:28;5.80;1.00
8487;DHT22;4280;50.534;8.708;2024-03-22T03:01:54;5.70;1.00
8487;DHT22;4280;50.534;8.708;2024-03-22T03:04:19;5.70;1.00
8487;DHT22;4280;50.534;8.708;2024-03-22T03:06:45;5.70;1.00
8487;DHT22;4280;50.534;8.708;2024-03-22T03:09:12;5.70;1.00
8487;DHT22;4280;50.534;8.708;2024-03-22T03:11:40;5.60;1.00
8487;DHT22;4280;50.534;8.708;2024-03-22T03:14:06;5.50;1.00
8487;DHT22;4280;50.534;8.708;2024-03-22T03:16:32;5.60;1.00
8487;DHT22;4280;50.534;8.708;2024-03-22T03:18:58;5.60;1.00
8487;DHT22;4280;50.534;8.708;2024-03-22T03:21:23;5.50;1.00
8487;DHT22;4280;50.534;8.708;2024-03-22T03:23:49;5.50;1.00
8487;DHT22;4280;50.534;8.708;2024-03-22T03:26:15;5.40;1.00
8487;DHT22;4280;50.534;8.708;2024-03-22T03:28:40;5.30;1.00
8487;DHT22;4280;50.534;8.708;2024-03-22T03:31:06;5.30;1.00
8487;DHT22;4280;50.534;8.708;2024-03-22T03:33:32;5.30;1.00
8487;DHT22;4280;50.534;8.708;2024-03-22T03:35:58;5.30;1.00
8487;DHT22;4280;50.534;8.708;2024-03-22T03:38:23;5.70;1.00
8487;DHT22;4280;50.534;8.708;2024-03-22T03:40:49;5.70;1.00
8487;DHT22;4280;50.534;8.708;2024-03-22T03:43:15;5.40;1.00
8487;DHT22;4280;50.534;8.708;2024-03-22T03:45:40;5.70;1.00
8487;DHT22;4280;50.534;8.708;2024-03-22T03:48:06;6.20;1.00
8487;DHT22;4280;50.534;8.708;2024-03-22T03:50:32;6.30;1.00
8487;DHT22;4280;50.534;8.708;2024-03-22T03:52:58;6.40;1.00
8487;DHT22;4280;50.534;8.708;2024-03-22T03:55:23;6.30;1.00
8487;DHT22;4280;50.534;8.708;2024-03-22T03:57:52;6.40;1.00
8487;DHT22;4280;50.534;8.708;2024-03-22T04:00:21;6.50;1.00
8487;DHT22;4280;50.534;8.708;2024-03-22T04:02:49;6.50;1.00
8487;DHT22;4280;50.534;8.708;2024-03-22T04:05:15;6.50;1.00
8487;DHT22;4280;50.534;8.708;2024-03-22T04:07:41;6.50;1.00
8487;DHT22;4280;50.534;8.708;2024-03-22T04:10:08;6.60;1.00
8487;DHT22;4280;50.534;8.708;2024-03-22T04:12:34;6.50;1.00
8487;DHT22;4280;50.534;8.708;2024-03-22T04:15:00;6.50;1.00
8487;DHT22;4280;50.534;8.708;2024-03-22T04:17:25;6.60;1.00
8487;DHT22;4280;50.534;8.708;2024-03-22T04:19:51;6.50;1.00
8487;DHT22;4280;50.534;8.708;2024-03-22T04:22:17;6.60;1.00
8487;DHT22;4280;50.534;8.708;2024-03-22T04:24:43;6.70;1.00
8487;DHT22;4280;50.534;8.708;2024-03-22T04:27:09;6.70;1.00
8487;DHT22;4280;50.534;8.708;2024-03-22T04:29:34;6.70;1.00
8487;DHT22;4280;50.534;8.708;2024-03-22T04:32:00;6.70;1.00
8487;DHT22;4280;50.534;8.708;2024-03-22T04:34:26;6.70;1.00
8487;DHT22;4280;50.534;8.708;2024-03-22T04:36:52;6.70;1.00
8487;DHT22;4280;50.534;8.708;2024-03-22T04:39:22;6.60;1.00
8487;DHT22;4280;50.534;8.708;2024-03-22T04:41:49;6.60;1.00
8487;DHT22;4280;50.534;8.708;2024-03-22T04:44:15;6.60;1.00
8487;DHT22;4280;50.534;8.708;2024-03-22T04:46:41;6.60;1.00
8487;DHT22;4280;50.534;8.708;2024-03-22T04:49:07;6.70;1.00
8487;DHT22;4280;50.534;8.708;2024-03-22T04:51:32;6.60;1.00
8487;DHT22;4280;50.534;8.708;2024-03-22T04:53:58;6.70;1.00
8487;DHT22;4280;50.534;8.708;2024-03-22T04:56:24;6.70;1.00
8487;DHT22;4280;50.534;8.708;2024-03-22T04:58:50;6.60;1.00
8487;DHT22;4280;50.534;8.708;2024-03-22T05:01:15;6.60;1.00
8487;DHT22;4280;50.534;8.708;2024-03-22T05:03:41;6.60;1.00
8487;DHT22;4280;50.534;8.708;2024-03-22T05:06:07;6.60;1.00
8487;DHT22;4280;50.534;8.708;2024-03-22T05:08:33;6.50;1.00
8487;DHT22;4280;50.534;8.708;2024-03-22T05:10:58;6.50;1.00
8487;DHT22;4280;50.534;8.708;2024-03-22T05:13:24;6.50;1.00
8487;DHT22;4280;50.534;8.708;2024-03-22T05:15:50;6.50;1.00
8487;DHT22;4280;50.534;8.708;2024-03-22T05:18:15;6.50;1.00
8487;DHT22;4280;50.534;8.708;2024-03-22T05:20:41;6.40;1.00
8487;DHT22;4280;50.534;8.708;2024-03-22T05:23:07;6.40;1.00
8487;DHT22;4280;50.534;8.708;2024-03-22T05:25:32;6.50;1.00
8487;DHT22;4280;50.534;8.708;2024-03-22T05:27:58;6.60;1.00
8487;DHT22;4280;50.534;8.708;2024-03-22T05:30:24;6.50;1.00
8487;DHT22;4280;50.534;8.708;2024-03-22T05:32:49;6.60;1.00
8487;DHT22;4280;50.534;8.708;2024-03-22T05:35:15;6.60;1.00
8487;DHT22;4280;50.534;8.708;2024-03-22T05:37:41;6.60;1.00
8487;DHT22;4280;50.534;8.708;2024-03-22T05:40:08;6.80;1.00
8487;DHT22;4280;50.534;8.708;2024-03-22T05:42:34;6.70;1.00
8487;DHT22;4280;50.534;8.708;2024-03-22T05:45:00;6.70;1.00
8487;DHT22;4280;50.534;8.708;2024-03-22T05:47:26;6.70;1.00
8487;DHT22;4280;50.534;8.708;2024-03-22T05:49:51;6.60;1.00
8487;DHT22;4280;50.534;8.708;2024-03-22T05:52:18;6.60;1.00
8487;DHT22;4280;50.534;8.708;2024-03-22T05:54:44;6.70;1.00
8487;DHT22;4280;50.534;8.708;2024-03-22T05:57:09;6.70;1.00
8487;DHT22;4280;50.534;8.708;2024-03-22T05:59:36;6.70;1.00
8487;DHT22;4280;50.534;8.708;2024-03-22T06:02:02;6.70;1.00
8487;DHT22;4280;50.534;8.708;2024-03-22T06:04:28;6.70;1.00
8487;DHT22;4280;50.534;8.708;2024-03-22T06:06:54;6.80;1.00
8487;DHT22;4280;50.534;8.708;2024-03-22T06:09:19;6.80;1.00
8487;DHT22;4280;50.534;8.708;2024-03-22T06:12:00;6.80;1.00
8487;DHT22;4280;50.534;8.708;2024-03-22T06:14:27;6.80;1.00
8487;DHT22;4280;50.534;8.708;2024-03-22T06:16:53;6.90;1.00
8487;DHT22;4280;50.534;8.708;2024-03-22T06:19:19;6.90;1.00
8487;DHT22;4280;50.534;8.708;2024-03-22T06:21:44;7.00;1.00
8487;DHT22;4280;50.534;8.708;2024-03-22T06:24:10;7.00;1.00
8487;DHT22;4280;50.534;8.708;2024-03-22T06:26:36;7.10;1.00
8487;DHT22;4280;50.534;8.708;2024-03-22T06:29:01;7.20;1.00
8487;DHT22;4280;50.534;8.708;2024-03-22T06:31:28;7.20;1.00
8487;DHT22;4280;50.534;8.708;2024-03-22T06:33:54;7.20;1.00
8487;DHT22;4280;50.534;8.708;2024-03-22T06:36:21;7.20;1.00
8487;DHT22;4280;50.534;8.708;2024-03-22T06:38:47;7.30;1.00
8487;DHT22;4280;50.534;8.708;2024-03-22T06:41:13;7.40;1.00
8487;DHT22;4280;50.534;8.708;2024-03-22T06:43:39;7.50;1.00
8487;DHT22;4280;50.534;8.708;2024-03-22T06:46:06;7.60;1.00
8487;DHT22;4280;50.534;8.708;2024-03-22T06:48:32;7.60;1.00
8487;DHT22;4280;50.534;8.708;2024-03-22T06:50:57;7.50;1.00
8487;DHT22;4280;50.534;8.708;2024-03-22T06:53:23;7.50;1.00
8487;DHT22;4280;50.534;8.708;2024-03-22T06:55:49;7.60;1.00
8487;DHT22;4280;50.534;8.708;2024-03-22T06:58:14;7.80;1.00
8487;DHT22;4280;50.534;8.708;2024-03-22T07:00:40;7.80;1.00
8487;DHT22;4280;50.534;8.708;2024-03-22T07:03:05;7.80;1.00
8487;DHT22;4280;50.534;8.708;2024-03-22T07:05:31;7.90;1.00
8487;DHT22;4280;50.534;8.708;2024-03-22T07:07:57;7.90;1.00
8487;DHT22;4280;50.534;8.708;2024-03-22T07:10:23;8.10;1.00
8487;DHT22;4280;50.534;8.708;2024-03-22T07:12:56;8.00;1.00
8487;DHT22;4280;50.534;8.708;2024-03-22T07:15:23;8.00;1.00
8487;DHT22;4280;50.534;8.708;2024-03-22T07:17:49;8.10;1.00
8487;DHT22;4280;50.534;8.708;2024-03-22T07:20:16;8.00;1.00
8487;DHT22;4280;50.534;8.708;2024-03-22T07:22:41;8.10;1.00
8487;DHT22;4280;50.534;8.708;2024-03-22T07:25:08;8.10;1.00
8487;DHT22;4280;50.534;8.708;2024-03-22T07:27:35;8.20;1.00
8487;DHT22;4280;50.534;8.708;2024-03-22T07:30:02;8.30;1.00
8487;DHT22;4280;50.534;8.708;2024-03-22T07:32:29;8.30;1.00
8487;DHT22;4280;50.534;8.708;2024-03-22T07:34:55;8.20;1.00
8487;DHT22;4280;50.534;8.708;2024-03-22T07:37:21;8.20;1.00
8487;DHT22;4280;50.534;8.708;2024-03-22T07:39:47;8.30;1.00
8487;DHT22;4280;50.534;8.708;2024-03-22T07:42:12;8.40;1.00
8487;DHT22;4280;50.534;8.708;2024-03-22T07:44:38;8.40;1.00
8487;DHT22;4280;50.534;8.708;2024-03-22T07:47:04;8.50;1.00
8487;DHT22;4280;50.534;8.708;2024-03-22T07:49:30;8.60;1.00
8487;DHT22;4280;50.534;8.708;2024-03-22T07:51:56;8.60;1.00
8487;DHT22;4280;50.534;8.708;2024-03-22T07:54:22;8.60;1.00
8487;DHT22;4280;50.534;8.708;2024-03-22T07:56:48;8.70;1.00
8487;DHT22;4280;50.534;8.708;2024-03-22T07:59:15;8.70;1.00
8487;DHT22;4280;50.534;8.708;2024-03-22T08:01:40;8.70;1.00
8487;DHT22;4280;50.534;8.708;2024-03-22T08:04:06;8.70;1.00
8487;DHT22;4280;50.534;8.708;2024-03-22T08:06:32;8.80;1.00
8487;DHT22;4280;50.534;8.708;2024-03-22T08:08:57;8.90;1.00
8487;DHT22;4280;50.534;8.708;2024-03-22T08:11:23;9.00;1.00
8487;DHT22;4280;50.534;8.708;2024-03-22T08:13:49;9.00;1.00
8487;DHT22;4280;50.534;8.708;2024-03-22T08:16:14;9.10;1.00
8487;DHT22;4280;50.534;8.708;2024-03-22T08:18:40;9.10;1.00
8487;DHT22;4280;50.534;8.708;2024-03-22T08:21:06;9.40;1.00
8487;DHT22;4280;50.534;8.708;2024-03-22T08:23:32;9.40;1.00
8487;DHT22;4280;50.534;8.708;2024-03-22T08:25:58;9.40;1.00
8487;DHT22;4280;50.534;8.708;2024-03-22T08:28:23;9.50;1.00
8487;DHT22;4280;50.534;8.708;2024-03-22T08:30:49;9.60;1.00
8487;DHT22;4280;50.534;8.708;2024-03-22T08:33:15;9.60;1.00
8487;DHT22;4280;50.534;8.708;2024-03-22T08:35:41;9.70;1.00
8487;DHT22;4280;50.534;8.708;2024-03-22T08:38:06;10.00;1.00
8487;DHT22;4280;50.534;8.708;2024-03-22T08:40:38;9.90;1.00
8487;DHT22;4280;50.534;8.708;2024-03-22T08:43:05;9.90;1.00
8487;DHT22;4280;50.534;8.708;2024-03-22T08:45:36;10.10;1.00
8487;DHT22;4280;50.534;8.708;2024-03-22T08:48:01;10.20;1.00
8487;DHT22;4280;50.534;8.708;2024-03-22T08:50:28;10.60;1.00
8487;DHT22;4280;50.534;8.708;2024-03-22T08:52:53;10.80;1.00
8487;DHT22;4280;50.534;8.708;2024-03-22T08:55:19;10.80;1.00
8487;DHT22;4280;50.534;8.708;2024-03-22T08:57:45;11.00;1.00
8487;DHT22;4280;50.534;8.708;2024-03-22T09:00:11;11.50;1.00
8487;DHT22;4280;50.534;8.708;2024-03-22T09:02:37;11.50;1.00
8487;DHT22;4280;50.534;8.708;2024-03-22T09:05:04;12.00;1.00
8487;DHT22;4280;50.534;8.708;2024-03-22T09:07:31;12.60;1.00
8487;DHT22;4280;50.534;8.708;2024-03-22T09:09:56;12.60;1.00
8487;DHT22;4280;50.534;8.708;2024-03-22T09:12:22;12.20;1.00
8487;DHT22;4280;50.534;8.708;2024-03-22T09:14:48;12.10;1.00
8487;DHT22;4280;50.534;8.708;2024-03-22T09:17:13;12.20;1.00
8487;DHT22;4280;50.534;8.708;2024-03-22T09:19:39;12.10;1.00
8487;DHT22;4280;50.534;8.708;2024-03-22T09:22:05;12.00;1.00
8487;DHT22;4280;50.534;8.708;2024-03-22T09:24:31;11.90;1.00
8487;DHT22;4280;50.534;8.708;2024-03-22T09:26:56;12.30;1.00
8487;DHT22;4280;50.534;8.708;2024-03-22T09:29:24;12.50;1.00
8487;DHT22;4280;50.534;8.708;2024-03-22T09:31:50;12.70;1.00
8487;DHT22;4280;50.534;8.708;2024-03-22T09:34:18;12.60;1.00
8487;DHT22;4280;50.534;8.708;2024-03-22T09:36:45;12.80;1.00
8487;DHT22;4280;50.534;8.708;2024-03-22T09:39:11;12.70;1.00
8487;DHT22;4280;50.534;8.708;2024-03-22T09:41:42;13.10;1.00
8487;DHT22;4280;50.534;8.708;2024-03-22T09:44:12;13.40;1.00
8487;DHT22;4280;50.534;8.708;2024-03-22T09:46:40;13.40;1.00
8487;DHT22;4280;50.534;8.708;2024-03-22T09:49:09;13.10;1.00
8487;DHT22;4280;50.534;8.708;2024-03-22T09:51:37;13.20;1.00
8487;DHT22;4280;50.534;8.708;2024-03-22T09:54:03;13.40;1.00
8487;DHT22;4280;50.534;8.708;2024-03-22T09:56:30;13.50;1.00
8487;DHT22;4280;50.534;8.708;2024-03-22T09:58:57;13.70;1.00
8487;DHT22;4280;50.534;8.708;2024-03-22T10:01:24;14.00;1.00
8487;DHT22;4280;50.534;8.708;2024-03-22T10:03:54;13.90;1.00
8487;DHT22;4280;50.534;8.708;2024-03-22T10:06:20;13.80;1.00
8487;DHT22;4280;50.534;8.708;2024-03-22T10:08:46;14.00;1.00
8487;DHT22;4280;50.534;8.708;2024-03-22T10:11:12;14.40;1.00
8487;DHT22;4280;50.534;8.708;2024-03-22T10:13:37;14.20;1.00
8487;DHT22;4280;50.534;8.708;2024-03-22T10:16:04;14.20;1.00
8487;DHT22;4280;50.534;8.708;2024-03-22T10:18:32;14.60;1.00
8487;DHT22;4280;50.534;8.708;2024-03-22T10:21:03;14.50;1.00
8487;DHT22;4280;50.534;8.708;2024-03-22T10:23:30;14.60;1.00
8487;DHT22;4280;50.534;8.708;2024-03-22T10:25:57;14.70;1.00
8487;DHT22;4280;50.534;8.708;2024-03-22T10:28:24;14.60;1.00
8487;DHT22;4280;50.534;8.708;2024-03-22T10:30:53;14.50;1.00
8487;DHT22;4280;50.534;8.708;2024-03-22T10:33:22;14.40;1.00
8487;DHT22;4280;50.534;8.708;2024-03-22T10:35:52;14.30;1.00
8487;DHT22;4280;50.534;8.708;2024-03-22T10:38:20;14.40;1.00
8487;DHT22;4280;50.534;8.708;2024-03-22T10:40:46;14.30;1.00
8487;DHT22;4280;50.534;8.708;2024-03-22T10:43:16;14.30;1.00
8487;DHT22;4280;50.534;8.708;2024-03-22T10:45:42;14.90;1.00
8487;DHT22;4280;50.534;8.708;2024-03-22T10:48:14;15.40;1.00
8487;DHT22;4280;50.534;8.708;2024-03-22T10:50:43;15.30;1.00
8487;DHT22;4280;50.534;8.708;2024-03-22T10:53:20;15.60;1.00
8487;DHT22;4280;50.534;8.708;2024-03-22T10:55:50;15.70;1.00
8487;DHT22;4280;50.534;8.708;2024-03-22T10:58:24;15.90;1.00
8487;DHT22;4280;50.534;8.708;2024-03-22T11:00:56;15.70;1.00
8487;DHT22;4280;50.534;8.708;2024-03-22T11:03:24;15.90;1.00
8487;DHT22;4280;50.534;8.708;2024-03-22T11:05:55;16.10;1.00
8487;DHT22;4280;50.534;8.708;2024-03-22T11:08:28;15.90;1.00
8487;DHT22;4280;50.534;8.708;2024-03-22T11:10:56;16.10;1.00
8487;DHT22;4280;50.534;8.708;2024-03-22T11:13:22;16.40;1.00
8487;DHT22;4280;50.534;8.708;2024-03-22T11:15:49;16.50;1.00
8487;DHT22;4280;50.534;8.708;2024-03-22T11:18:16;16.40;1.00
8487;DHT22;4280;50.534;8.708;2024-03-22T11:20:43;16.20;1.00
8487;DHT22;4280;50.534;8.708;2024-03-22T11:23:10;16.50;1.00
8487;DHT22;4280;50.534;8.708;2024-03-22T11:25:36;16.40;1.00
8487;DHT22;4280;50.534;8.708;2024-03-22T11:28:02;17.00;1.00
8487;DHT22;4280;50.534;8.708;2024-03-22T11:30:29;16.90;1.00
8487;DHT22;4280;50.534;8.708;2024-03-22T11:32:55;16.80;1.00
8487;DHT22;4280;50.534;8.708;2024-03-22T11:35:21;16.60;1.00
8487;DHT22;4280;50.534;8.708;2024-03-22T11:37:49;16.80;1.00
8487;DHT22;4280;50.534;8.708;2024-03-22T11:40:16;16.80;1.00
8487;DHT22;4280;50.534;8.708;2024-03-22T11:42:49;16.80;1.00
8487;DHT22;4280;50.534;8.708;2024-03-22T11:45:17;16.50;1.00
8487;DHT22;4280;50.534;8.708;2024-03-22T11:47:44;16.70;1.00
8487;DHT22;4280;50.534;8.708;2024-03-22T11:50:12;16.70;1.00
8487;DHT22;4280;50.534;8.708;2024-03-22T11:52:40;16.60;1.00
8487;DHT22;4280;50.534;8.708;2024-03-22T11:55:06;16.80;1.00
8487;DHT22;4280;50.534;8.708;2024-03-22T11:57:32;16.40;1.00
8487;DHT22;4280;50.534;8.708;2024-03-22T12:00:02;16.60;1.00
8487;DHT22;4280;50.534;8.708;2024-03-22T12:02:32;16.60;1.00
8487;DHT22;4280;50.534;8.708;2024-03-22T12:04:57;16.80;1.00
8487;DHT22;4280;50.534;8.708;2024-03-22T12:07:23;16.70;1.00
8487;DHT22;4280;50.534;8.708;2024-03-22T12:09:49;16.80;1.00
8487;DHT22;4280;50.534;8.708;2024-03-22T12:12:15;16.80;1.00
8487;DHT22;4280;50.534;8.708;2024-03-22T12:14:41;16.90;1.00
8487;DHT22;4280;50.534;8.708;2024-03-22T12:17:07;16.90;1.00
8487;DHT22;4280;50.534;8.708;2024-03-22T12:19:34;16.50;1.00
8487;DHT22;4280;50.534;8.708;2024-03-22T12:22:01;16.70;1.00
8487;DHT22;4280;50.534;8.708;2024-03-22T12:24:27;16.80;1.00
8487;DHT22;4280;50.534;8.708;2024-03-22T12:26:53;16.80;1.00
8487;DHT22;4280;50.534;8.708;2024-03-22T12:29:19;16.90;1.00
8487;DHT22;4280;50.534;8.708;2024-03-22T12:31:46;16.90;1.00
8487;DHT22;4280;50.534;8.708;2024-03-22T12:34:12;16.90;1.00
8487;DHT22;4280;50.534;8.708;2024-03-22T12:36:38;17.10;1.00
8487;DHT22;4280;50.534;8.708;2024-03-22T12:39:04;17.00;1.00
8487;DHT22;4280;50.534;8.708;2024-03-22T12:41:30;16.90;1.00
8487;DHT22;4280;50.534;8.708;2024-03-22T12:43:56;16.90;1.00
8487;DHT22;4280;50.534;8.708;2024-03-22T12:46:22;17.00;1.00
8487;DHT22;4280;50.534;8.708;2024-03-22T12:48:48;17.10;1.00
8487;DHT22;4280;50.534;8.708;2024-03-22T12:51:14;17.40;1.00
8487;DHT22;4280;50.534;8.708;2024-03-22T12:53:40;17.10;1.00
8487;DHT22;4280;50.534;8.708;2024-03-22T12:56:06;17.30;1.00
8487;DHT22;4280;50.534;8.708;2024-03-22T12:58:32;17.30;1.00
8487;DHT22;4280;50.534;8.708;2024-03-22T13:00:58;17.10;1.00
8487;DHT22;4280;50.534;8.708;2024-03-22T13:03:26;17.10;1.00
8487;DHT22;4280;50.534;8.708;2024-03-22T13:05:53;17.10;1.00
8487;DHT22;4280;50.534;8.708;2024-03-22T13:08:19;16.80;1.00
8487;DHT22;4280;50.534;8.708;2024-03-22T13:10:46;16.70;1.00
8487;DHT22;4280;50.534;8.708;2024-03-22T13:13:13;16.60;1.00
8487;DHT22;4280;50.534;8.708;2024-03-22T13:15:42;16.40;1.00
8487;DHT22;4280;50.534;8.708;2024-03-22T13:18:08;16.40;1.00
8487;DHT22;4280;50.534;8.708;2024-03-22T13:20:35;16.30;1.00
8487;DHT22;4280;50.534;8.708;2024-03-22T13:23:02;16.30;1.00
8487;DHT22;4280;50.534;8.708;2024-03-22T13:25:28;16.20;1.00
8487;DHT22;4280;50.534;8.708;2024-03-22T13:27:53;16.10;1.00
8487;DHT22;4280;50.534;8.708;2024-03-22T13:30:19;16.10;1.00
8487;DHT22;4280;50.534;8.708;2024-03-22T13:32:45;16.10;1.00
8487;DHT22;4280;50.534;8.708;2024-03-22T13:35:11;16.00;1.00
8487;DHT22;4280;50.534;8.708;2024-03-22T13:37:37;16.10;1.00
8487;DHT22;4280;50.534;8.708;2024-03-22T13:40:02;16.30;1.00
8487;DHT22;4280;50.534;8.708;2024-03-22T13:42:29;16.50;1.00
8487;DHT22;4280;50.534;8.708;2024-03-22T13:44:56;16.40;1.00
8487;DHT22;4280;50.534;8.708;2024-03-22T13:47:22;16.60;1.00
8487;DHT22;4280;50.534;8.708;2024-03-22T13:49:48;16.40;1.00
8487;DHT22;4280;50.534;8.708;2024-03-22T13:52:14;16.10;1.00
8487;DHT22;4280;50.534;8.708;2024-03-22T13:54:40;16.20;1.00
8487;DHT22;4280;50.534;8.708;2024-03-22T13:57:05;16.20;1.00
8487;DHT22;4280;50.534;8.708;2024-03-22T13:59:31;16.30;1.00
8487;DHT22;4280;50.534;8.708;2024-03-22T14:01:57;16.10;1.00
8487;DHT22;4280;50.534;8.708;2024-03-22T14:04:23;16.10;1.00
8487;DHT22;4280;50.534;8.708;2024-03-22T14:06:51;16.00;1.00
8487;DHT22;4280;50.534;8.708;2024-03-22T14:09:17;16.00;1.00
8487;DHT22;4280;50.534;8.708;2024-03-22T14:11:43;16.00;1.00
8487;DHT22;4280;50.534;8.708;2024-03-22T14:14:09;16.00;1.00
8487;DHT22;4280;50.534;8.708;2024-03-22T14:16:39;16.10;1.00
8487;DHT22;4280;50.534;8.708;2024-03-22T14:19:06;16.10;1.00
8487;DHT22;4280;50.534;8.708;2024-03-22T14:21:32;16.00;1.00
8487;DHT22;4280;50.534;8.708;2024-03-22T14:23:58;16.00;1.00
8487;DHT22;4280;50.534;8.708;2024-03-22T14:26:24;15.70;1.00
8487;DHT22;4280;50.534;8.708;2024-03-22T14:28:49;15.70;1.00
8487;DHT22;4280;50.534;8.708;2024-03-22T14:31:16;15.70;1.00
8487;DHT22;4280;50.534;8.708;2024-03-22T14:33:42;15.70;1.00
8487;DHT22;4280;50.534;8.708;2024-03-22T14:36:08;15.70;1.00
8487;DHT22;4280;50.534;8.708;2024-03-22T14:38:36;15.60;1.00
8487;DHT22;4280;50.534;8.708;2024-03-22T14:41:02;15.60;1.00
8487;DHT22;4280;50.534;8.708;2024-03-22T14:43:28;15.60;1.00
8487;DHT22;4280;50.534;8.708;2024-03-22T14:45:54;15.60;1.00
8487;DHT22;4280;50.534;8.708;2024-03-22T14:48:24;15.60;1.00
8487;DHT22;4280;50.534;8.708;2024-03-22T14:50:51;15.50;1.00
8487;DHT22;4280;50.534;8.708;2024-03-22T14:53:18;15.40;1.00
8487;DHT22;4280;50.534;8.708;2024-03-22T14:55:59;15.50;1.00
8487;DHT22;4280;50.534;8.708;2024-03-22T14:58:29;15.40;1.00
8487;DHT22;4280;50.534;8.708;2024-03-22T15:00:57;15.40;1.00
8487;DHT22;4280;50.534;8.708;2024-03-22T15:03:24;15.40;1.00
8487;DHT22;4280;50.534;8.708;2024-03-22T15:05:57;15.40;1.00
8487;DHT22;4280;50.534;8.708;2024-03-22T15:08:25;15.50;1.00
8487;DHT22;4280;50.534;8.708;2024-03-22T15:10:51;15.50;1.00
8487;DHT22;4280;50.534;8.708;2024-03-22T15:13:18;15.60;1.00
8487;DHT22;4280;50.534;8.708;2024-03-22T15:15:57;15.80;1.00
8487;DHT22;4280;50.534;8.708;2024-03-22T15:18:24;15.90;1.00
8487;DHT22;4280;50.534;8.708;2024-03-22T15:20:52;15.80;1.00
8487;DHT22;4280;50.534;8.708;2024-03-22T15:23:18;15.90;1.00
8487;DHT22;4280;50.534;8.708;2024-03-22T15:25:46;15.70;1.00
8487;DHT22;4280;50.534;8.708;2024-03-22T15:28:13;15.70;1.00
8487;DHT22;4280;50.534;8.708;2024-03-22T15:30:39;15.60;1.00
8487;DHT22;4280;50.534;8.708;2024-03-22T15:33:08;15.70;1.00
8487;DHT22;4280;50.534;8.708;2024-03-22T15:35:34;15.70;1.00
8487;DHT22;4280;50.534;8.708;2024-03-22T15:38:01;15.60;1.00
8487;DHT22;4280;50.534;8.708;2024-03-22T15:40:29;15.60;1.00
8487;DHT22;4280;50.534;8.708;2024-03-22T15:42:58;15.80;1.00
8487;DHT22;4280;50.534;8.708;2024-03-22T15:45:24;15.70;1.00
8487;DHT22;4280;50.534;8.708;2024-03-22T15:47:49;15.80;1.00
8487;DHT22;4280;50.534;8.708;2024-03-22T15:50:15;15.90;1.00
8487;DHT22;4280;50.534;8.708;2024-03-22T15:52:41;15.80;1.00
8487;DHT22;4280;50.534;8.708;2024-03-22T15:55:07;15.70;1.00
8487;DHT22;4280;50.534;8.708;2024-03-22T15:57:33;15.80;1.00
8487;DHT22;4280;50.534;8.708;2024-03-22T15:59:58;15.70;1.00
8487;DHT22;4280;50.534;8.708;2024-03-22T16:02:24;15.80;1.00
8487;DHT22;4280;50.534;8.708;2024-03-22T16:04:50;15.80;1.00
8487;DHT22;4280;50.534;8.708;2024-03-22T16:07:16;15.90;1.00
8487;DHT22;4280;50.534;8.708;2024-03-22T16:09:41;15.80;1.00
8487;DHT22;4280;50.534;8.708;2024-03-22T16:12:07;15.70;1.00
8487;DHT22;4280;50.534;8.708;2024-03-22T16:14:33;15.70;1.00
8487;DHT22;4280;50.534;8.708;2024-03-22T16:16:59;15.80;1.00
8487;DHT22;4280;50.534;8.708;2024-03-22T16:19:25;15.60;1.00
8487;DHT22;4280;50.534;8.708;2024-03-22T16:21:51;15.80;1.00